Urb La Vista, Puerto Rico
Current Conditions -  °F | °C
As of 3:56 PM on Thursday 23 Oct 2014 (Local Time) from TJSJ Reporting Station
Scattered Clouds Scattered Clouds  
Wind Chill: 88°   Ceiling: Unl
Heat Index: 101°   Visibility: 10mi
Dew Point: 78°   Wind: 13mph
Humidity: 72%   Direction: 70°ENE
Pressure: 29.86"   Gusts: NA
Location:  18.4051°N, 66.0126°W
Report Text: TJSJ 231956Z 07011KT 10SM FEW038 SCT048 SCT150 31/26 A2986 RMK AO2 SLP111 T03110256
Loading
Personal Weather Stations






























Interactive Weather Map
Tropical Storm Tracking
New forecast layout! Learn more

10-Day Weather Forecast

Advertisements
Track Severe Weather on mobile